Time;durP1;ratioP1;P1;durP2;ratioP2;P2;SDS_P1;SDS_P2;PMS_P1;PMS_P2;Temp;Humidity;BMP_temperature;BMP_pressure;BME280_temperature;BME280_humidity;BME280_pressure;Samples;Min_cycle;Max_cycle;Signal;HPM_P1;HPM_P2
2021/04/30 00:01:14;;;;;;;11.00;6.95;;;8.30;99.90;;;;;;4992051;28;20386;-49
2021/04/30 00:03:40;;;;;;;13.02;7.70;;;8.20;99.90;;;;;;4993371;28;20383;-49
2021/04/30 00:06:06;;;;;;;12.13;7.50;;;8.30;99.90;;;;;;4992700;28;20433;-50
2021/04/30 00:08:31;;;;;;;14.38;8.55;;;8.20;99.90;;;;;;4993395;28;20973;-49
2021/04/30 00:10:57;;;;;;;11.65;7.45;;;8.20;99.90;;;;;;4993016;28;20688;-61
2021/04/30 00:13:23;;;;;;;11.55;7.43;;;8.30;99.90;;;;;;4992969;28;20453;-49
2021/04/30 00:15:49;;;;;;;12.20;7.70;;;8.20;99.90;;;;;;4992968;28;20770;-52
2021/04/30 00:18:15;;;;;;;11.32;7.30;;;8.20;99.90;;;;;;4992398;28;20433;-49
2021/04/30 00:20:50;;;;;;;13.63;8.80;;;8.10;99.90;;;;;;4992979;28;20394;-49
2021/04/30 00:23:15;;;;;;;12.10;7.50;;;8.60;99.90;;;;;;4992188;28;20414;-49
2021/04/30 00:25:41;;;;;;;11.80;7.70;;;7.90;99.90;;;;;;4992693;28;20488;-49
2021/04/30 00:28:07;;;;;;;10.05;6.82;;;7.90;99.90;;;;;;4991123;28;20501;-52
2021/04/30 00:30:34;;;;;;;11.27;7.70;;;8.00;99.90;;;;;;4992508;28;20703;-50
2021/04/30 00:33:00;;;;;;;11.88;7.50;;;7.90;99.90;;;;;;4992177;28;20390;-62
2021/04/30 00:35:26;;;;;;;11.77;7.65;;;7.90;99.90;;;;;;4992480;28;20390;-50
2021/04/30 00:37:52;;;;;;;12.03;7.87;;;7.70;99.90;;;;;;4993137;28;20676;-49
2021/04/30 00:40:17;;;;;;;13.07;8.33;;;7.70;99.90;;;;;;4992153;28;20730;-49
2021/04/30 00:42:44;;;;;;;12.88;7.85;;;7.70;99.90;;;;;;4992284;28;20422;-49
2021/04/30 00:45:16;;;;;;;14.20;8.65;;;7.70;99.90;;;;;;4991697;28;20406;-49
2021/04/30 00:47:42;;;;;;;13.30;8.45;;;7.60;99.90;;;;;;4992732;28;20430;-49
2021/04/30 00:50:10;;;;;;;12.57;7.32;;;7.70;99.90;;;;;;4991842;28;20393;-49
2021/04/30 00:52:36;;;;;;;11.82;8.10;;;7.60;99.90;;;;;;4992450;28;20522;-49
2021/04/30 00:55:10;;;;;;;14.10;8.40;;;7.50;99.90;;;;;;4990483;28;20568;-49
2021/04/30 00:57:38;;;;;;;14.38;8.25;;;7.30;99.90;;;;;;4992295;28;20473;-50
2021/04/30 01:00:06;;;;;;;13.18;8.85;;;7.40;99.90;;;;;;4991387;28;20734;-49
2021/04/30 01:02:32;;;;;;;14.13;8.20;;;7.30;99.90;;;;;;4992061;28;20379;-51
2021/04/30 01:05:00;;;;;;;14.00;9.10;;;7.30;99.90;;;;;;4990664;28;20413;-60
2021/04/30 01:07:25;;;;;;;14.07;8.45;;;7.10;99.90;;;;;;4992081;28;20383;-50
2021/04/30 01:09:51;;;;;;;14.50;8.90;;;7.10;99.90;;;;;;4990863;28;20390;-50
2021/04/30 01:12:17;;;;;;;14.18;9.68;;;7.00;99.90;;;;;;4990799;28;20963;-50
2021/04/30 01:14:44;;;;;;;13.77;8.80;;;7.00;99.90;;;;;;4991627;28;20457;-49
2021/04/30 01:17:09;;;;;;;13.38;8.90;;;8.20;99.90;;;;;;4991057;28;20393;-50
2021/04/30 01:19:35;;;;;;;13.70;8.83;;;7.10;99.90;;;;;;4991821;28;20429;-49
2021/04/30 01:22:01;;;;;;;14.30;9.20;;;7.10;99.90;;;;;;4991360;28;20395;-61
2021/04/30 01:24:27;;;;;;;13.67;9.27;;;7.20;99.90;;;;;;4991893;28;20788;-49
2021/04/30 01:26:53;;;;;;;14.87;8.60;;;7.30;99.90;;;;;;4991943;28;20382;-50
2021/04/30 01:29:19;;;;;;;14.87;9.10;;;7.30;99.90;;;;;;4991092;28;20390;-49
2021/04/30 01:31:45;;;;;;;15.30;9.48;;;7.30;99.90;;;;;;4991603;28;20509;-49
2021/04/30 01:34:12;;;;;;;14.90;9.13;;;7.30;99.90;;;;;;4990991;28;20402;-50
2021/04/30 01:36:38;;;;;;;15.10;8.80;;;7.30;99.90;;;;;;4991743;28;20378;-49
2021/04/30 01:39:07;;;;;;;13.53;8.03;;;7.30;99.90;;;;;;4990938;28;20390;-49
2021/04/30 01:41:35;;;;;;;13.85;9.27;;;7.30;99.90;;;;;;4991105;28;20406;-50
2021/04/30 01:44:01;;;;;;;15.60;8.60;;;7.40;99.90;;;;;;4991029;28;20571;-59
2021/04/30 01:46:27;;;;;;;13.77;8.98;;;7.60;99.90;;;;;;4991374;28;20557;-49
2021/04/30 01:48:53;;;;;;;13.27;8.57;;;7.70;99.90;;;;;;4991648;28;20418;-49
2021/04/30 01:51:19;;;;;;;14.32;9.02;;;7.80;99.90;;;;;;4990421;28;20426;-49
2021/04/30 01:53:45;;;;;;;15.32;9.38;;;7.70;99.90;;;;;;4991147;28;20390;-49
2021/04/30 01:56:14;;;;;;;15.30;9.20;;;7.60;99.90;;;;;;4989331;28;20390;-50
2021/04/30 01:58:41;;;;;;;13.77;9.40;;;7.60;99.90;;;;;;4991580;28;20741;-49
2021/04/30 02:01:08;;;;;;;16.58;9.50;;;7.50;99.90;;;;;;4990360;28;20395;-49
2021/04/30 02:03:34;;;;;;;14.10;9.20;;;7.50;99.90;;;;;;4991093;28;20390;-49
2021/04/30 02:06:00;;;;;;;14.02;8.68;;;7.50;99.90;;;;;;4990874;28;20393;-60
2021/04/30 02:08:26;;;;;;;14.13;9.43;;;7.70;99.90;;;;;;4991060;28;20473;-50
2021/04/30 02:10:52;;;;;;;15.30;9.37;;;7.80;99.90;;;;;;4990768;28;20398;-49
2021/04/30 02:13:19;;;;;;;14.88;9.20;;;7.70;99.90;;;;;;4988945;28;20399;-49
2021/04/30 02:15:48;;;;;;;15.38;9.30;;;7.80;99.90;;;;;;4990647;28;20386;-49
2021/04/30 02:18:14;;;;;;;13.93;9.00;;;7.70;99.90;;;;;;4989862;28;20395;-49
2021/04/30 02:20:41;;;;;;;14.77;9.57;;;7.80;99.90;;;;;;4990927;28;20378;-49
2021/04/30 02:23:07;;;;;;;14.85;9.05;;;9.30;99.90;;;;;;4990287;28;20461;-49
2021/04/30 02:25:33;;;;;;;15.38;9.80;;;7.70;99.90;;;;;;4990800;28;20375;-52
2021/04/30 02:28:03;;;;;;;15.45;9.75;;;7.70;99.90;;;;;;4990869;28;20449;-61
2021/04/30 02:30:31;;;;;;;15.45;9.40;;;7.70;99.90;;;;;;4990668;28;20393;-49
2021/04/30 02:32:57;;;;;;;18.00;10.30;;;7.60;99.90;;;;;;4990546;28;20426;-49
2021/04/30 02:35:34;;;;;;;14.18;9.60;;;7.60;99.90;;;;;;4990036;28;20382;-49
2021/04/30 02:38:01;;;;;;;14.43;9.10;;;7.60;99.90;;;;;;4990348;28;20382;-60
2021/04/30 02:40:29;;;;;;;16.02;9.63;;;7.80;99.90;;;;;;4990059;28;20391;-50
2021/04/30 02:42:56;;;;;;;14.30;9.13;;;7.80;99.90;;;;;;4990454;28;20417;-49
2021/04/30 02:45:22;;;;;;;14.48;9.20;;;7.80;99.90;;;;;;4989907;28;20500;-49
2021/04/30 02:47:49;;;;;;;15.23;10.20;;;8.00;99.90;;;;;;4990205;28;20758;-52
2021/04/30 02:50:17;;;;;;;15.82;10.02;;;8.00;99.90;;;;;;4989927;28;20440;-49
2021/04/30 02:52:44;;;;;;;15.15;9.55;;;8.10;99.90;;;;;;4990562;28;20429;-49
2021/04/30 02:55:11;;;;;;;15.52;10.10;;;8.10;99.90;;;;;;4989903;28;20391;-52
2021/04/30 02:57:36;;;;;;;15.57;9.40;;;8.00;99.90;;;;;;4990229;28;20386;-49
2021/04/30 03:00:04;;;;;;;15.80;9.60;;;8.00;99.90;;;;;;4989956;28;20385;-60
2021/04/30 03:02:31;;;;;;;15.07;9.85;;;7.90;99.90;;;;;;4990318;28;20397;-49
2021/04/30 03:04:56;;;;;;;16.13;10.35;;;7.80;99.90;;;;;;4990616;28;20378;-50
2021/04/30 03:07:22;;;;;;;17.10;11.20;;;7.80;99.90;;;;;;4989227;28;20481;-50
2021/04/30 03:09:48;;;;;;;17.50;10.60;;;7.90;99.90;;;;;;4990128;28;20481;-49
2021/04/30 03:12:13;;;;;;;15.95;10.80;;;7.80;99.90;;;;;;4989745;28;20458;-50
2021/04/30 03:14:39;;;;;;;15.93;10.60;;;7.90;99.90;;;;;;4990540;28;20489;-50
2021/04/30 03:17:05;;;;;;;17.40;10.35;;;7.90;99.90;;;;;;4988275;28;20873;-50
2021/04/30 03:19:30;;;;;;;18.50;11.20;;;7.90;99.90;;;;;;4990329;28;20409;-49
2021/04/30 03:21:56;;;;;;;15.38;10.40;;;7.90;99.90;;;;;;4990147;28;20397;-49
2021/04/30 03:24:22;;;;;;;15.43;9.73;;;8.00;99.90;;;;;;4989671;28;20982;-50
2021/04/30 03:26:48;;;;;;;16.10;10.50;;;8.00;99.90;;;;;;4990381;28;20398;-50
2021/04/30 03:29:14;;;;;;;17.55;10.63;;;8.10;99.90;;;;;;4993192;28;20418;-50
2021/04/30 03:31:40;;;;;;;16.80;11.00;;;8.10;99.90;;;;;;5004482;28;20521;-50
2021/04/30 03:34:06;;;;;;;14.35;9.40;;;8.00;99.90;;;;;;5013067;28;20391;-50
2021/04/30 03:36:33;;;;;;;17.25;10.05;;;8.00;99.90;;;;;;5013674;28;20372;-50
2021/04/30 03:39:00;;;;;;;18.30;10.98;;;7.90;99.90;;;;;;5013439;28;20376;-49
2021/04/30 03:41:26;;;;;;;16.38;10.45;;;7.90;99.90;;;;;;5012143;28;20413;-50
2021/04/30 03:43:52;;;;;;;18.05;11.63;;;7.80;99.90;;;;;;5012170;28;20389;-50
2021/04/30 03:46:17;;;;;;;16.63;10.70;;;7.80;99.90;;;;;;5012625;28;20388;-50
2021/04/30 03:48:43;;;;;;;15.48;10.15;;;7.80;99.90;;;;;;5013121;28;20392;-49
2021/04/30 03:51:09;;;;;;;17.00;11.15;;;7.80;99.90;;;;;;5009336;28;20420;-50
2021/04/30 03:53:35;;;;;;;16.80;10.70;;;8.00;99.90;;;;;;5013302;28;20419;-49
2021/04/30 03:56:00;;;;;;;16.63;10.33;;;8.10;99.90;;;;;;5012756;28;20400;-59
2021/04/30 03:58:26;;;;;;;17.83;11.00;;;8.20;99.90;;;;;;5012555;28;20450;-50
2021/04/30 04:00:53;;;;;;;17.02;10.60;;;8.20;99.90;;;;;;5013213;28;20828;-51
2021/04/30 04:03:21;;;;;;;18.58;11.38;;;8.10;99.90;;;;;;5011941;28;20385;-51
2021/04/30 04:05:46;;;;;;;17.75;10.50;;;8.10;99.90;;;;;;5013225;28;20449;-48
2021/04/30 04:08:12;;;;;;;18.40;10.70;;;8.10;99.90;;;;;;5012043;28;20385;-51
2021/04/30 04:10:38;;;;;;;16.83;10.57;;;8.20;99.90;;;;;;5012749;28;20900;-49
2021/04/30 04:13:18;;;;;;;17.80;10.60;;;8.20;99.90;;;;;;5012594;28;20401;-58
2021/04/30 04:15:45;;;;;;;18.00;10.30;;;8.20;99.90;;;;;;5013262;28;20836;-48
2021/04/30 04:18:11;;;;;;;15.07;10.00;;;8.30;99.90;;;;;;5012203;28;20412;-51
2021/04/30 04:20:36;;;;;;;21.17;10.60;;;8.30;99.90;;;;;;5012516;28;20493;-49
2021/04/30 04:23:02;;;;;;;19.65;11.73;;;8.30;99.90;;;;;;5012687;28;20465;-61
2021/04/30 04:25:29;;;;;;;16.40;9.90;;;8.30;99.90;;;;;;5011072;28;20772;-49
2021/04/30 04:27:55;;;;;;;18.35;11.27;;;8.20;99.90;;;;;;5012714;28;20471;-55
2021/04/30 04:30:23;;;;;;;16.63;10.30;;;8.30;99.90;;;;;;5011850;28;20389;-52
2021/04/30 04:32:48;;;;;;;15.47;10.50;;;8.30;99.90;;;;;;5009269;28;20424;-52
2021/04/30 04:35:14;;;;;;;19.50;10.90;;;8.20;99.90;;;;;;5001038;28;20764;-53
2021/04/30 04:37:39;;;;;;;18.30;11.03;;;8.40;99.90;;;;;;5001626;28;20876;-49
2021/04/30 04:40:06;;;;;;;19.87;11.33;;;8.40;99.90;;;;;;5002848;28;20724;-56
2021/04/30 04:42:31;;;;;;;17.75;10.68;;;8.40;99.90;;;;;;5000443;28;20420;-59
2021/04/30 04:44:57;;;;;;;15.73;10.13;;;8.40;99.90;;;;;;5008263;28;20391;-50
2021/04/30 04:47:22;;;;;;;15.90;10.40;;;8.50;99.90;;;;;;5011679;28;20453;-50
2021/04/30 04:49:48;;;;;;;15.67;9.90;;;8.60;99.90;;;;;;5009472;28;20476;-52
2021/04/30 04:52:13;;;;;;;18.88;10.88;;;8.50;99.90;;;;;;5010701;28;20421;-54
2021/04/30 04:54:39;;;;;;;17.53;10.00;;;8.60;99.90;;;;;;5009017;28;20411;-50
2021/04/30 04:57:05;;;;;;;19.30;11.30;;;8.60;99.90;;;;;;4999830;28;20908;-61
2021/04/30 04:59:31;;;;;;;22.80;11.30;;;8.60;99.90;;;;;;5000938;28;20409;-50
2021/04/30 05:01:56;;;;;;;17.07;10.87;;;8.60;99.90;;;;;;4998086;28;20395;-50
2021/04/30 05:04:22;;;;;;;17.83;10.88;;;8.60;99.90;;;;;;5011066;28;20387;-50
2021/04/30 05:06:48;;;;;;;20.10;11.20;;;8.60;99.90;;;;;;5011834;28;20374;-50
2021/04/30 05:09:13;;;;;;;20.92;10.68;;;8.70;99.90;;;;;;5007349;28;20404;-50
2021/04/30 05:11:39;;;;;;;16.13;9.83;;;8.70;99.90;;;;;;5006950;28;20473;-50
2021/04/30 05:14:05;;;;;;;18.48;11.40;;;8.60;99.90;;;;;;5007148;28;20401;-62
2021/04/30 05:16:30;;;;;;;16.27;9.97;;;8.60;99.90;;;;;;5011489;28;20415;-50
2021/04/30 05:18:56;;;;;;;17.50;11.13;;;8.60;99.90;;;;;;5011678;28;20499;-50
2021/04/30 05:21:22;;;;;;;16.45;9.95;;;8.60;99.90;;;;;;5010622;28;20387;-50
2021/04/30 05:23:47;;;;;;;16.37;10.70;;;8.60;99.90;;;;;;5011523;28;20469;-51
2021/04/30 05:26:13;;;;;;;16.73;11.00;;;8.70;99.90;;;;;;5010083;28;20479;-48
2021/04/30 05:28:39;;;;;;;15.20;9.70;;;8.70;99.90;;;;;;5000577;28;20390;-48
2021/04/30 05:31:05;;;;;;;17.08;10.68;;;8.90;99.90;;;;;;5010329;28;20490;-52
2021/04/30 05:33:31;;;;;;;15.98;10.02;;;8.70;99.90;;;;;;5000327;28;20798;-49
2021/04/30 05:35:57;;;;;;;17.42;10.30;;;8.80;99.90;;;;;;5008536;28;20741;-50
2021/04/30 05:38:23;;;;;;;18.65;11.02;;;8.80;99.90;;;;;;5009861;28;20381;-51
2021/04/30 05:40:48;;;;;;;17.17;10.93;;;8.80;99.90;;;;;;5010866;28;20421;-50
2021/04/30 05:43:15;;;;;;;17.52;10.82;;;8.80;99.90;;;;;;5010190;28;20571;-51
2021/04/30 05:45:43;;;;;;;21.20;11.60;;;8.80;99.90;;;;;;5011056;28;20455;-51
2021/04/30 05:48:09;;;;;;;18.85;10.73;;;9.00;99.90;;;;;;5010064;28;20381;-50
2021/04/30 05:50:35;;;;;;;15.90;10.53;;;8.90;99.90;;;;;;5010272;28;20454;-50
2021/04/30 05:53:01;;;;;;;18.58;10.60;;;9.00;99.90;;;;;;5008552;28;21395;-50
2021/04/30 05:55:27;;;;;;;17.83;10.85;;;9.00;99.90;;;;;;5019170;28;20399;-51
2021/04/30 05:57:52;;;;;;;18.42;10.90;;;9.00;99.90;;;;;;5021984;28;20408;-51
2021/04/30 06:00:18;;;;;;;16.80;10.00;;;9.20;99.90;;;;;;5009389;28;20741;-50
2021/04/30 06:02:44;;;;;;;17.98;10.50;;;9.40;99.90;;;;;;5023147;28;20862;-50
2021/04/30 06:05:10;;;;;;;18.95;11.10;;;9.50;99.90;;;;;;5029291;28;20393;-53
2021/04/30 06:07:36;;;;;;;18.63;11.63;;;9.70;99.90;;;;;;5029847;28;20862;-51
2021/04/30 06:10:03;;;;;;;18.17;11.20;;;10.00;99.90;;;;;;5027124;28;20430;-50
2021/04/30 06:12:29;;;;;;;16.80;11.25;;;9.50;99.90;;;;;;5009808;28;20428;-51
2021/04/30 06:14:55;;;;;;;17.80;11.05;;;9.30;99.90;;;;;;5009917;28;20748;-51
2021/04/30 06:17:20;;;;;;;17.43;11.40;;;9.30;99.90;;;;;;5009142;28;20397;-50
2021/04/30 06:19:46;;;;;;;17.63;10.45;;;9.40;99.90;;;;;;5009044;28;20392;-49
2021/04/30 06:22:12;;;;;;;17.48;10.85;;;9.50;99.90;;;;;;5009403;28;20377;-52
2021/04/30 06:24:38;;;;;;;19.23;11.32;;;9.50;99.90;;;;;;5008325;28;20398;-50
2021/04/30 06:27:04;;;;;;;18.07;11.47;;;9.30;99.90;;;;;;5012183;28;20391;-61
2021/04/30 06:29:30;;;;;;;16.90;10.77;;;9.20;99.90;;;;;;5028898;28;20780;-50
2021/04/30 06:31:56;;;;;;;19.35;10.40;;;9.30;99.90;;;;;;5029787;28;20407;-49
2021/04/30 06:34:25;;;;;;;17.80;10.63;;;9.30;99.90;;;;;;5028563;28;20470;-51
2021/04/30 06:36:54;;;;;;;17.83;11.50;;;9.40;99.90;;;;;;5029684;28;20386;-57
2021/04/30 06:39:20;;;;;;;18.92;10.32;;;9.20;99.90;;;;;;5028976;28;20379;-50
2021/04/30 06:41:46;;;;;;;18.25;10.25;;;9.40;99.90;;;;;;5029680;28;20881;-50
2021/04/30 06:44:12;;;;;;;17.13;10.30;;;9.30;99.90;;;;;;5029008;28;20386;-50
2021/04/30 06:46:37;;;;;;;16.47;10.57;;;9.40;99.90;;;;;;5029410;28;20424;-51
2021/04/30 06:49:04;;;;;;;16.13;10.07;;;9.50;99.90;;;;;;5029781;28;20391;-62
2021/04/30 06:51:29;;;;;;;16.75;10.65;;;9.50;99.90;;;;;;5028911;28;20490;-54
2021/04/30 06:53:55;;;;;;;16.43;10.93;;;9.50;99.90;;;;;;5029447;28;20521;-50
2021/04/30 06:56:21;;;;;;;17.80;10.45;;;9.50;99.90;;;;;;5028001;28;20375;-50
2021/04/30 06:58:47;;;;;;;14.70;9.77;;;9.50;99.90;;;;;;5028923;28;20379;-52
2021/04/30 07:01:13;;;;;;;16.40;10.00;;;9.50;99.90;;;;;;5026058;28;20395;-49
2021/04/30 07:03:40;;;;;;;17.98;10.30;;;9.20;99.90;;;;;;5012547;28;20392;-53
2021/04/30 07:06:05;;;;;;;15.50;10.57;;;9.20;99.90;;;;;;5012172;28;20396;-62
2021/04/30 07:08:31;;;;;;;18.92;10.90;;;9.30;99.90;;;;;;5013883;28;20436;-50
2021/04/30 07:10:57;;;;;;;17.20;10.50;;;9.30;99.90;;;;;;5013497;28;20466;-50
2021/04/30 07:13:23;;;;;;;20.43;11.70;;;9.10;99.90;;;;;;5012542;28;20484;-50
2021/04/30 07:15:49;;;;;;;18.13;10.70;;;9.00;99.90;;;;;;5013472;28;20400;-50
2021/04/30 07:18:15;;;;;;;17.23;10.75;;;8.90;99.90;;;;;;5012565;28;20471;-50
2021/04/30 07:20:40;;;;;;;16.90;10.50;;;8.90;99.90;;;;;;5012237;28;20923;-53
2021/04/30 07:23:06;;;;;;;18.27;10.47;;;9.10;99.90;;;;;;5012656;28;20389;-62
2021/04/30 07:25:32;;;;;;;18.63;10.82;;;9.20;99.90;;;;;;5012697;28;20372;-50
2021/04/30 07:27:58;;;;;;;17.93;11.10;;;9.10;99.90;;;;;;5013243;28;21082;-50
2021/04/30 07:30:24;;;;;;;18.55;10.57;;;9.10;99.90;;;;;;5012572;28;20389;-52
2021/04/30 07:32:49;;;;;;;16.25;10.48;;;9.10;99.90;;;;;;5011774;28;20484;-50
2021/04/30 07:35:15;;;;;;;17.53;11.10;;;9.20;99.90;;;;;;5012430;28;20866;-54
2021/04/30 07:37:41;;;;;;;18.58;10.70;;;9.30;99.90;;;;;;5012992;28;20396;-54
2021/04/30 07:40:08;;;;;;;17.15;9.40;;;9.40;99.90;;;;;;5011796;28;20380;-62
2021/04/30 07:42:35;;;;;;;18.40;10.27;;;9.30;99.90;;;;;;5013367;28;20482;-50
2021/04/30 07:45:01;;;;;;;19.17;10.55;;;9.40;99.90;;;;;;5012976;28;20942;-50
2021/04/30 07:47:27;;;;;;;16.88;11.00;;;9.50;99.90;;;;;;5011650;28;20994;-50
2021/04/30 07:49:52;;;;;;;18.35;10.68;;;9.50;99.90;;;;;;5012705;28;20475;-50
2021/04/30 07:52:18;;;;;;;18.52;10.40;;;9.50;99.90;;;;;;5012035;28;20420;-50
2021/04/30 07:54:43;;;;;;;16.30;10.20;;;9.50;99.90;;;;;;5012636;28;20439;-51
2021/04/30 07:57:10;;;;;;;17.90;10.80;;;9.40;99.90;;;;;;5010614;28;20487;-51
2021/04/30 07:59:36;;;;;;;17.90;10.65;;;9.40;99.90;;;;;;5012565;28;20442;-51
2021/04/30 08:02:03;;;;;;;17.75;11.25;;;9.50;99.90;;;;;;5021767;28;20912;-50
2021/04/30 08:04:29;;;;;;;15.68;10.20;;;9.40;99.90;;;;;;5031368;28;20371;-50
2021/04/30 08:06:56;;;;;;;18.88;10.60;;;9.00;99.90;;;;;;5031195;28;20400;-50
2021/04/30 08:09:21;;;;;;;16.60;10.95;;;9.60;99.90;;;;;;5031450;28;20401;-52
2021/04/30 08:11:47;;;;;;;16.08;10.85;;;9.60;99.90;;;;;;5031618;28;20407;-50
2021/04/30 08:14:13;;;;;;;17.27;10.63;;;9.60;99.90;;;;;;5029160;28;20411;-50
2021/04/30 08:16:38;;;;;;;18.23;11.10;;;9.60;99.90;;;;;;5031479;28;20387;-50
2021/04/30 08:19:05;;;;;;;16.80;10.70;;;9.70;99.90;;;;;;5032407;28;20386;-50
2021/04/30 08:21:32;;;;;;;16.92;10.30;;;9.90;99.90;;;;;;5031249;28;20494;-50
2021/04/30 08:23:57;;;;;;;16.90;11.20;;;9.90;99.90;;;;;;5032244;28;20395;-51
2021/04/30 08:26:24;;;;;;;16.80;11.00;;;9.70;99.90;;;;;;5031101;28;20740;-52
2021/04/30 08:28:50;;;;;;;19.20;11.45;;;9.60;99.90;;;;;;5030361;28;20383;-52
2021/04/30 08:31:16;;;;;;;19.27;10.57;;;9.70;99.90;;;;;;5030717;28;20407;-55
2021/04/30 08:33:42;;;;;;;19.60;11.13;;;9.70;99.90;;;;;;5031972;28;20441;-51
2021/04/30 08:36:08;;;;;;;17.73;10.90;;;9.60;99.90;;;;;;5030108;28;20438;-62
2021/04/30 08:38:36;;;;;;;18.92;11.25;;;9.60;99.90;;;;;;5031458;28;20479;-51
2021/04/30 08:41:02;;;;;;;17.77;11.38;;;9.70;99.90;;;;;;5031590;28;20469;-51
2021/04/30 08:43:28;;;;;;;17.77;11.32;;;9.70;99.90;;;;;;5029222;28;21000;-51
2021/04/30 08:45:55;;;;;;;17.38;10.93;;;9.60;99.90;;;;;;5031425;28;20402;-51
2021/04/30 08:48:24;;;;;;;17.65;11.13;;;9.60;99.90;;;;;;5030949;28;20375;-51
2021/04/30 08:50:50;;;;;;;18.10;11.50;;;9.70;99.90;;;;;;5031507;28;20858;-51
2021/04/30 08:53:16;;;;;;;21.90;11.77;;;9.60;99.90;;;;;;5030862;28;20387;-52
2021/04/30 08:55:42;;;;;;;18.70;12.00;;;9.70;99.90;;;;;;5031959;28;20394;-51
2021/04/30 08:58:10;;;;;;;17.85;12.10;;;9.90;99.90;;;;;;5030293;28;20453;-49
2021/04/30 09:00:36;;;;;;;19.37;12.50;;;9.90;99.90;;;;;;5031613;28;20386;-51
2021/04/30 09:03:01;;;;;;;21.57;12.70;;;10.20;99.90;;;;;;5009605;28;20394;-52
2021/04/30 09:05:31;;;;;;;19.40;11.77;;;9.90;99.90;;;;;;4990616;28;21048;-51
2021/04/30 09:07:59;;;;;;;21.60;12.45;;;9.80;99.90;;;;;;4992007;28;20387;-51
2021/04/30 09:10:27;;;;;;;20.23;13.07;;;9.90;99.90;;;;;;4991220;28;20390;-51
2021/04/30 09:13:07;;;;;;;18.73;13.13;;;10.00;99.90;;;;;;4991900;28;20506;-53
2021/04/30 09:15:33;;;;;;;20.13;13.90;;;9.90;99.90;;;;;;4991361;28;20390;-52
2021/04/30 09:18:15;;;;;;;19.35;13.05;;;9.70;99.90;;;;;;4991786;28;20397;-51
2021/04/30 09:20:41;;;;;;;22.60;13.57;;;9.70;99.90;;;;;;4991572;28;20387;-52
2021/04/30 09:23:46;;;;;;;23.13;13.23;;;9.50;99.90;;;;;;4990981;28;20410;-57
2021/04/30 09:26:29;;;;;;;20.80;12.90;;;9.70;99.90;;;;;;4990012;28;20379;-51
2021/04/30 09:29:09;;;;;;;20.70;13.30;;;9.50;99.90;;;;;;4990137;28;20383;-51
2021/04/30 09:31:43;;;;;;;21.77;13.70;;;9.30;99.90;;;;;;4991011;28;20402;-52
2021/04/30 09:34:27;;;;;;;24.02;14.48;;;9.30;99.90;;;;;;4991007;28;20445;-60
2021/04/30 09:36:57;;;;;;;22.52;14.60;;;9.50;99.90;;;;;;4991315;28;20437;-51
2021/04/30 09:39:23;;;;;;;24.77;16.13;;;9.60;99.90;;;;;;4990359;28;20833;-51
2021/04/30 09:42:09;;;;;;;20.20;13.80;;;9.70;99.90;;;;;;4990986;28;20927;-53
2021/04/30 09:44:42;;;;;;;20.90;13.80;;;9.70;99.90;;;;;;4990238;28;20777;-51
2021/04/30 09:47:12;;;;;;;25.08;14.50;;;9.50;99.90;;;;;;4991058;28;20371;-62
2021/04/30 09:49:38;;;;;;;21.95;14.25;;;9.40;99.90;;;;;;4991349;28;20385;-50
2021/04/30 09:52:07;;;;;;;22.45;13.88;;;9.50;99.90;;;;;;4990856;28;20402;-52
2021/04/30 09:54:36;;;;;;;21.90;14.50;;;9.50;99.90;;;;;;4989345;28;20493;-51
2021/04/30 09:57:10;;;;;;;23.90;13.97;;;9.60;99.90;;;;;;4991033;28;20452;-50
2021/04/30 09:59:41;;;;;;;20.95;13.73;;;9.80;99.90;;;;;;4990873;28;20433;-53
2021/04/30 10:02:11;;;;;;;20.67;13.52;;;9.60;99.90;;;;;;5009941;28;20387;-51
2021/04/30 10:04:38;;;;;;;24.15;15.23;;;9.50;99.90;;;;;;5030312;28;20406;-52
2021/04/30 10:07:05;;;;;;;21.30;13.55;;;9.60;99.90;;;;;;5030087;28;20383;-53
2021/04/30 10:09:33;;;;;;;22.50;14.23;;;9.70;99.90;;;;;;5027900;28;20474;-51
2021/04/30 10:12:16;;;;;;;22.60;14.02;;;9.40;99.90;;;;;;5030119;28;20835;-51
2021/04/30 10:14:41;;;;;;;24.40;15.30;;;9.50;99.90;;;;;;5029760;28;20920;-51
2021/04/30 10:17:07;;;;;;;21.27;14.33;;;9.40;99.90;;;;;;5029343;28;20379;-61
2021/04/30 10:19:34;;;;;;;21.95;13.90;;;9.30;99.90;;;;;;5027960;28;20746;-54
2021/04/30 10:22:01;;;;;;;23.10;15.33;;;9.20;99.90;;;;;;5029518;28;20443;-54
2021/04/30 10:24:29;;;;;;;22.02;15.02;;;9.20;99.90;;;;;;5029085;28;20627;-51
2021/04/30 10:26:57;;;;;;;23.80;14.75;;;9.40;99.90;;;;;;5029041;28;20438;-51
2021/04/30 10:29:26;;;;;;;25.40;16.00;;;9.20;99.90;;;;;;5028924;28;20375;-51
2021/04/30 10:31:56;;;;;;;23.97;16.30;;;9.20;99.90;;;;;;5029614;28;20834;-52
2021/04/30 10:34:27;;;;;;;22.63;15.35;;;9.30;99.90;;;;;;5029155;28;20807;-52
2021/04/30 10:36:56;;;;;;;29.10;16.05;;;9.30;99.90;;;;;;5029473;28;20383;-51
2021/04/30 10:39:34;;;;;;;24.73;15.85;;;9.20;99.90;;;;;;5028805;28;20399;-51
2021/04/30 10:42:12;;;;;;;24.63;16.00;;;11.50;99.90;;;;;;5029697;28;20908;-51
2021/04/30 10:44:43;;;;;;;26.65;15.80;;;9.20;99.90;;;;;;5029135;28;20395;-58
2021/04/30 10:47:12;;;;;;;25.90;16.10;;;9.30;99.90;;;;;;5029603;28;20376;-63
2021/04/30 10:49:41;;;;;;;26.23;16.42;;;9.40;99.90;;;;;;5029435;28;20390;-51
2021/04/30 10:52:08;;;;;;;25.92;16.30;;;9.50;99.90;;;;;;5028868;28;20411;-51
2021/04/30 10:54:41;;;;;;;25.50;15.60;;;9.40;99.90;;;;;;5028673;28;20383;-51
2021/04/30 10:57:10;;;;;;;25.17;16.25;;;9.50;99.90;;;;;;5029128;28;20383;-51
2021/04/30 10:59:36;;;;;;;24.02;14.35;;;9.40;99.90;;;;;;5029272;28;20383;-51
2021/04/30 11:02:31;;;;;;;24.35;14.45;;;9.40;99.90;;;;;;5019854;28;20400;-52
2021/04/30 11:05:03;;;;;;;25.52;16.10;;;9.10;99.90;;;;;;5009534;28;20817;-51
2021/04/30 11:07:49;;;;;;;22.27;13.85;;;9.20;99.90;;;;;;5008826;28;20395;-48
2021/04/30 11:10:34;;;;;;;21.97;13.73;;;8.90;99.90;;;;;;5008992;28;20393;-55
2021/04/30 11:13:14;;;;;;;21.67;12.48;;;9.00;99.90;;;;;;5009489;28;20412;-57
2021/04/30 11:15:45;;;;;;;21.73;13.43;;;8.90;99.90;;;;;;5009571;28;20384;-50
2021/04/30 11:18:18;;;;;;;22.47;13.23;;;8.80;99.90;;;;;;5009150;28;20389;-63
2021/04/30 11:21:01;;;;;;;21.47;14.13;;;8.70;99.90;;;;;;5009577;28;20388;-50
2021/04/30 11:23:29;;;;;;;22.85;14.52;;;8.80;99.90;;;;;;5008621;28;20381;-50
2021/04/30 11:25:58;;;;;;;21.08;12.98;;;8.90;99.90;;;;;;5009223;28;20377;-50
2021/04/30 11:28:30;;;;;;;20.80;12.15;;;8.90;99.90;;;;;;5008464;28;20439;-51
2021/04/30 11:31:11;;;;;;;21.33;13.45;;;8.80;99.90;;;;;;5009030;28;20412;-50
2021/04/30 11:33:42;;;;;;;21.13;13.63;;;8.90;99.90;;;;;;5009045;28;20381;-50
2021/04/30 11:36:12;;;;;;;24.70;13.70;;;8.80;99.90;;;;;;5008045;28;20396;-51
2021/04/30 11:38:43;;;;;;;20.67;12.30;;;8.80;99.90;;;;;;5008979;28;20415;-51
2021/04/30 11:41:10;;;;;;;21.70;13.02;;;8.80;99.90;;;;;;5009351;28;20480;-56
2021/04/30 11:43:38;;;;;;;20.30;12.00;;;8.70;99.90;;;;;;5008845;28;20437;-51
2021/04/30 11:46:04;;;;;;;20.60;12.80;;;8.60;99.90;;;;;;5009226;28;20377;-51
2021/04/30 11:48:30;;;;;;;21.37;12.80;;;8.60;99.90;;;;;;5009048;28;21049;-48
2021/04/30 11:50:59;;;;;;;18.58;12.38;;;8.50;99.90;;;;;;5012760;28;20387;-52
2021/04/30 11:53:25;;;;;;;19.52;12.63;;;8.40;99.90;;;;;;5012255;28;20385;-48
2021/04/30 11:55:51;;;;;;;22.47;13.60;;;8.50;99.90;;;;;;5012946;28;20423;-48
2021/04/30 11:58:17;;;;;;;20.43;13.10;;;8.50;99.90;;;;;;5012172;28;20388;-50
2021/04/30 12:00:49;;;;;;;20.40;13.15;;;8.40;99.90;;;;;;5012917;28;20391;-49
2021/04/30 12:03:14;;;;;;;21.88;13.13;;;8.40;99.90;;;;;;5030885;28;20449;-49
2021/04/30 12:05:40;;;;;;;22.17;14.20;;;8.30;99.90;;;;;;5032235;28;20379;-50
2021/04/30 12:08:06;;;;;;;18.95;12.60;;;8.20;99.90;;;;;;5032124;28;20445;-49
2021/04/30 12:10:34;;;;;;;21.03;13.57;;;8.00;99.90;;;;;;5031123;28;20860;-49
2021/04/30 12:13:00;;;;;;;22.20;13.77;;;8.00;99.90;;;;;;5032240;28;20411;-49
2021/04/30 12:15:31;;;;;;;22.10;13.47;;;7.90;99.90;;;;;;5031477;28;20894;-49
2021/04/30 12:17:57;;;;;;;22.90;14.38;;;7.80;99.90;;;;;;5032100;28;20449;-49
2021/04/30 12:20:26;;;;;;;25.85;13.98;;;7.80;99.90;;;;;;5031534;28;20866;-49
2021/04/30 12:23:18;;;;;;;22.20;14.93;;;8.00;99.90;;;;;;5031967;28;20886;-50
2021/04/30 12:25:46;;;;;;;24.13;14.35;;;8.20;99.90;;;;;;5027534;28;20431;-49
2021/04/30 12:28:16;;;;;;;21.85;14.13;;;8.20;99.90;;;;;;5030309;28;20407;-61
2021/04/30 12:30:43;;;;;;;20.58;13.23;;;8.30;99.90;;;;;;5032215;28;20393;-56
2021/04/30 12:33:20;;;;;;;23.65;14.90;;;8.20;99.90;;;;;;5031748;28;20474;-49
2021/04/30 12:35:46;;;;;;;22.85;14.10;;;8.00;99.90;;;;;;5032037;28;20375;-49
2021/04/30 12:38:12;;;;;;;21.55;13.90;;;8.10;99.90;;;;;;5031114;28;20375;-63
2021/04/30 12:40:38;;;;;;;20.65;13.35;;;8.30;99.90;;;;;;5031636;28;20940;-52